sensor_id;sensor_type;location;lat;lon;timestamp;P1;durP1;ratioP1;P2;durP2;ratioP2
45970;SDS011;31681;48.982;8.394;2023-04-10T00:02:21;8.60;;;6.47;;
45970;SDS011;31681;48.982;8.394;2023-04-10T00:04:46;8.03;;;6.07;;
45970;SDS011;31681;48.982;8.394;2023-04-10T00:07:11;11.37;;;7.07;;
45970;SDS011;31681;48.982;8.394;2023-04-10T00:09:37;10.97;;;6.77;;
45970;SDS011;31681;48.982;8.394;2023-04-10T00:12:03;9.37;;;6.03;;
45970;SDS011;31681;48.982;8.394;2023-04-10T00:14:28;10.30;;;6.53;;
45970;SDS011;31681;48.982;8.394;2023-04-10T00:16:53;10.07;;;6.63;;
45970;SDS011;31681;48.982;8.394;2023-04-10T00:19:19;10.27;;;6.87;;
45970;SDS011;31681;48.982;8.394;2023-04-10T00:21:44;10.13;;;7.27;;
45970;SDS011;31681;48.982;8.394;2023-04-10T00:24:10;11.03;;;6.60;;
45970;SDS011;31681;48.982;8.394;2023-04-10T00:26:35;9.00;;;6.53;;
45970;SDS011;31681;48.982;8.394;2023-04-10T00:29:01;9.97;;;6.43;;
45970;SDS011;31681;48.982;8.394;2023-04-10T00:31:26;10.73;;;7.03;;
45970;SDS011;31681;48.982;8.394;2023-04-10T00:33:52;9.73;;;7.13;;
45970;SDS011;31681;48.982;8.394;2023-04-10T00:36:17;10.63;;;6.93;;
45970;SDS011;31681;48.982;8.394;2023-04-10T00:38:43;9.43;;;6.50;;
45970;SDS011;31681;48.982;8.394;2023-04-10T00:41:08;10.23;;;6.90;;
45970;SDS011;31681;48.982;8.394;2023-04-10T00:43:34;10.63;;;7.13;;
45970;SDS011;31681;48.982;8.394;2023-04-10T00:45:59;10.17;;;6.87;;
45970;SDS011;31681;48.982;8.394;2023-04-10T00:48:25;9.13;;;6.33;;
45970;SDS011;31681;48.982;8.394;2023-04-10T00:50:50;9.73;;;6.77;;
45970;SDS011;31681;48.982;8.394;2023-04-10T00:53:16;9.53;;;7.00;;
45970;SDS011;31681;48.982;8.394;2023-04-10T00:55:41;10.37;;;7.10;;
45970;SDS011;31681;48.982;8.394;2023-04-10T00:58:07;9.40;;;6.80;;
45970;SDS011;31681;48.982;8.394;2023-04-10T01:00:32;9.60;;;6.73;;
45970;SDS011;31681;48.982;8.394;2023-04-10T01:02:58;9.03;;;6.30;;
45970;SDS011;31681;48.982;8.394;2023-04-10T01:05:26;9.17;;;7.07;;
45970;SDS011;31681;48.982;8.394;2023-04-10T01:07:58;10.27;;;6.50;;
45970;SDS011;31681;48.982;8.394;2023-04-10T01:10:37;12.17;;;7.60;;
45970;SDS011;31681;48.982;8.394;2023-04-10T01:15:36;10.63;;;7.20;;
45970;SDS011;31681;48.982;8.394;2023-04-10T01:20:31;10.70;;;6.80;;
45970;SDS011;31681;48.982;8.394;2023-04-10T01:25:44;10.47;;;7.07;;
45970;SDS011;31681;48.982;8.394;2023-04-10T01:30:39;10.13;;;6.83;;
45970;SDS011;31681;48.982;8.394;2023-04-10T01:33:05;9.33;;;6.70;;
45970;SDS011;31681;48.982;8.394;2023-04-10T01:35:33;10.40;;;7.03;;
45970;SDS011;31681;48.982;8.394;2023-04-10T01:38:00;11.60;;;7.30;;
45970;SDS011;31681;48.982;8.394;2023-04-10T01:40:25;12.77;;;7.53;;
45970;SDS011;31681;48.982;8.394;2023-04-10T01:42:52;9.97;;;6.53;;
45970;SDS011;31681;48.982;8.394;2023-04-10T01:45:24;11.63;;;7.60;;
45970;SDS011;31681;48.982;8.394;2023-04-10T01:47:51;9.93;;;7.00;;
45970;SDS011;31681;48.982;8.394;2023-04-10T01:50:17;10.80;;;7.17;;
45970;SDS011;31681;48.982;8.394;2023-04-10T01:52:44;12.10;;;7.97;;
45970;SDS011;31681;48.982;8.394;2023-04-10T01:55:19;10.13;;;6.87;;
45970;SDS011;31681;48.982;8.394;2023-04-10T01:57:50;11.70;;;7.07;;
45970;SDS011;31681;48.982;8.394;2023-04-10T02:00:17;10.07;;;6.67;;
45970;SDS011;31681;48.982;8.394;2023-04-10T02:02:43;10.67;;;7.37;;
45970;SDS011;31681;48.982;8.394;2023-04-10T02:05:08;9.53;;;6.90;;
45970;SDS011;31681;48.982;8.394;2023-04-10T02:12:35;10.73;;;7.07;;
45970;SDS011;31681;48.982;8.394;2023-04-10T02:15:03;11.73;;;6.93;;
45970;SDS011;31681;48.982;8.394;2023-04-10T02:17:30;9.83;;;6.87;;
45970;SDS011;31681;48.982;8.394;2023-04-10T02:19:58;9.90;;;6.40;;
45970;SDS011;31681;48.982;8.394;2023-04-10T02:22:23;9.77;;;6.43;;
45970;SDS011;31681;48.982;8.394;2023-04-10T02:24:50;10.00;;;7.10;;
45970;SDS011;31681;48.982;8.394;2023-04-10T02:27:16;10.83;;;7.43;;
45970;SDS011;31681;48.982;8.394;2023-04-10T02:29:50;11.50;;;7.50;;
45970;SDS011;31681;48.982;8.394;2023-04-10T02:32:16;10.90;;;7.37;;
45970;SDS011;31681;48.982;8.394;2023-04-10T02:34:41;11.33;;;7.13;;
45970;SDS011;31681;48.982;8.394;2023-04-10T02:37:07;9.47;;;7.10;;
45970;SDS011;31681;48.982;8.394;2023-04-10T02:39:33;10.13;;;7.03;;
45970;SDS011;31681;48.982;8.394;2023-04-10T02:41:59;9.33;;;7.03;;
45970;SDS011;31681;48.982;8.394;2023-04-10T02:44:25;9.30;;;6.57;;
45970;SDS011;31681;48.982;8.394;2023-04-10T02:46:51;8.90;;;6.43;;
45970;SDS011;31681;48.982;8.394;2023-04-10T02:49:19;11.77;;;6.90;;
45970;SDS011;31681;48.982;8.394;2023-04-10T02:51:44;8.33;;;5.80;;
45970;SDS011;31681;48.982;8.394;2023-04-10T02:54:10;11.57;;;6.83;;
45970;SDS011;31681;48.982;8.394;2023-04-10T02:56:37;10.73;;;7.20;;
45970;SDS011;31681;48.982;8.394;2023-04-10T02:59:03;11.13;;;7.30;;
45970;SDS011;31681;48.982;8.394;2023-04-10T03:01:29;10.00;;;6.87;;
45970;SDS011;31681;48.982;8.394;2023-04-10T03:03:55;9.40;;;6.57;;
45970;SDS011;31681;48.982;8.394;2023-04-10T03:06:32;10.80;;;7.23;;
45970;SDS011;31681;48.982;8.394;2023-04-10T03:08:57;8.93;;;6.53;;
45970;SDS011;31681;48.982;8.394;2023-04-10T03:11:22;9.87;;;6.43;;
45970;SDS011;31681;48.982;8.394;2023-04-10T03:13:48;10.03;;;7.10;;
45970;SDS011;31681;48.982;8.394;2023-04-10T03:16:13;10.47;;;7.20;;
45970;SDS011;31681;48.982;8.394;2023-04-10T03:18:41;9.13;;;6.27;;
45970;SDS011;31681;48.982;8.394;2023-04-10T03:21:06;10.33;;;5.80;;
45970;SDS011;31681;48.982;8.394;2023-04-10T03:23:31;11.00;;;7.43;;
45970;SDS011;31681;48.982;8.394;2023-04-10T03:25:57;10.13;;;5.97;;
45970;SDS011;31681;48.982;8.394;2023-04-10T03:28:25;10.10;;;6.43;;
45970;SDS011;31681;48.982;8.394;2023-04-10T03:30:52;9.27;;;6.37;;
45970;SDS011;31681;48.982;8.394;2023-04-10T03:33:17;8.73;;;5.83;;
45970;SDS011;31681;48.982;8.394;2023-04-10T03:35:43;9.87;;;6.50;;
45970;SDS011;31681;48.982;8.394;2023-04-10T03:38:09;8.57;;;6.20;;
45970;SDS011;31681;48.982;8.394;2023-04-10T03:40:34;9.70;;;6.77;;
45970;SDS011;31681;48.982;8.394;2023-04-10T03:43:00;6.90;;;5.07;;
45970;SDS011;31681;48.982;8.394;2023-04-10T03:45:28;8.07;;;5.50;;
45970;SDS011;31681;48.982;8.394;2023-04-10T03:47:54;8.33;;;6.23;;
45970;SDS011;31681;48.982;8.394;2023-04-10T03:50:19;8.80;;;5.53;;
45970;SDS011;31681;48.982;8.394;2023-04-10T03:52:56;8.37;;;5.30;;
45970;SDS011;31681;48.982;8.394;2023-04-10T03:55:23;7.47;;;5.60;;
45970;SDS011;31681;48.982;8.394;2023-04-10T03:57:49;8.87;;;5.40;;
45970;SDS011;31681;48.982;8.394;2023-04-10T04:00:17;7.73;;;5.43;;
45970;SDS011;31681;48.982;8.394;2023-04-10T04:02:46;7.93;;;6.07;;
45970;SDS011;31681;48.982;8.394;2023-04-10T04:05:16;9.83;;;6.50;;
45970;SDS011;31681;48.982;8.394;2023-04-10T04:07:45;8.50;;;5.47;;
45970;SDS011;31681;48.982;8.394;2023-04-10T04:10:19;7.47;;;5.50;;
45970;SDS011;31681;48.982;8.394;2023-04-10T04:13:00;9.57;;;5.60;;
45970;SDS011;31681;48.982;8.394;2023-04-10T04:15:46;8.73;;;5.50;;
45970;SDS011;31681;48.982;8.394;2023-04-10T04:18:30;9.17;;;5.27;;
45970;SDS011;31681;48.982;8.394;2023-04-10T04:21:15;8.97;;;5.67;;
45970;SDS011;31681;48.982;8.394;2023-04-10T04:24:10;8.37;;;5.63;;
45970;SDS011;31681;48.982;8.394;2023-04-10T04:27:14;7.87;;;5.03;;
45970;SDS011;31681;48.982;8.394;2023-04-10T04:30:08;6.83;;;5.20;;
45970;SDS011;31681;48.982;8.394;2023-04-10T04:33:01;8.73;;;5.67;;
45970;SDS011;31681;48.982;8.394;2023-04-10T04:36:01;7.70;;;5.30;;
45970;SDS011;31681;48.982;8.394;2023-04-10T04:38:53;8.43;;;6.00;;
45970;SDS011;31681;48.982;8.394;2023-04-10T04:41:27;9.33;;;5.10;;
45970;SDS011;31681;48.982;8.394;2023-04-10T04:43:56;8.60;;;5.13;;
45970;SDS011;31681;48.982;8.394;2023-04-10T04:46:28;7.60;;;5.43;;
45970;SDS011;31681;48.982;8.394;2023-04-10T04:49:11;7.33;;;5.80;;
45970;SDS011;31681;48.982;8.394;2023-04-10T04:51:52;7.30;;;5.00;;
45970;SDS011;31681;48.982;8.394;2023-04-10T04:54:47;7.47;;;5.17;;
45970;SDS011;31681;48.982;8.394;2023-04-10T04:57:35;7.33;;;5.57;;
45970;SDS011;31681;48.982;8.394;2023-04-10T05:00:16;9.33;;;5.00;;
45970;SDS011;31681;48.982;8.394;2023-04-10T05:02:47;7.30;;;5.30;;
45970;SDS011;31681;48.982;8.394;2023-04-10T05:05:31;7.17;;;4.70;;
45970;SDS011;31681;48.982;8.394;2023-04-10T05:08:14;7.20;;;5.20;;
45970;SDS011;31681;48.982;8.394;2023-04-10T05:10:56;6.50;;;4.67;;
45970;SDS011;31681;48.982;8.394;2023-04-10T05:13:48;6.80;;;4.87;;
45970;SDS011;31681;48.982;8.394;2023-04-10T05:16:33;6.60;;;5.10;;
45970;SDS011;31681;48.982;8.394;2023-04-10T05:19:10;8.30;;;4.97;;
45970;SDS011;31681;48.982;8.394;2023-04-10T05:21:52;7.83;;;5.50;;
45970;SDS011;31681;48.982;8.394;2023-04-10T05:24:40;7.07;;;4.00;;
45970;SDS011;31681;48.982;8.394;2023-04-10T05:27:21;6.90;;;4.37;;
45970;SDS011;31681;48.982;8.394;2023-04-10T05:30:05;6.87;;;4.73;;
45970;SDS011;31681;48.982;8.394;2023-04-10T05:33:00;8.50;;;5.13;;
45970;SDS011;31681;48.982;8.394;2023-04-10T05:35:38;5.77;;;4.90;;
45970;SDS011;31681;48.982;8.394;2023-04-10T05:38:22;6.40;;;4.70;;
45970;SDS011;31681;48.982;8.394;2023-04-10T05:41:05;5.83;;;4.67;;
45970;SDS011;31681;48.982;8.394;2023-04-10T05:43:40;6.50;;;4.70;;
45970;SDS011;31681;48.982;8.394;2023-04-10T05:46:24;8.00;;;4.93;;
45970;SDS011;31681;48.982;8.394;2023-04-10T05:49:25;6.10;;;4.53;;
45970;SDS011;31681;48.982;8.394;2023-04-10T05:52:08;6.63;;;4.40;;
45970;SDS011;31681;48.982;8.394;2023-04-10T05:54:56;6.60;;;4.53;;
45970;SDS011;31681;48.982;8.394;2023-04-10T05:57:40;6.47;;;4.57;;
45970;SDS011;31681;48.982;8.394;2023-04-10T06:00:41;6.73;;;4.90;;
45970;SDS011;31681;48.982;8.394;2023-04-10T06:03:26;6.27;;;4.27;;
45970;SDS011;31681;48.982;8.394;2023-04-10T06:05:57;6.73;;;4.83;;
45970;SDS011;31681;48.982;8.394;2023-04-10T06:08:22;6.13;;;4.50;;
45970;SDS011;31681;48.982;8.394;2023-04-10T06:10:48;7.77;;;5.17;;
45970;SDS011;31681;48.982;8.394;2023-04-10T06:13:14;6.07;;;4.63;;
45970;SDS011;31681;48.982;8.394;2023-04-10T06:15:39;6.80;;;4.70;;
45970;SDS011;31681;48.982;8.394;2023-04-10T06:18:05;7.43;;;4.90;;
45970;SDS011;31681;48.982;8.394;2023-04-10T06:20:30;7.60;;;5.17;;
45970;SDS011;31681;48.982;8.394;2023-04-10T06:22:57;5.67;;;4.73;;
45970;SDS011;31681;48.982;8.394;2023-04-10T06:25:22;5.87;;;4.30;;
45970;SDS011;31681;48.982;8.394;2023-04-10T06:27:47;7.67;;;5.23;;
45970;SDS011;31681;48.982;8.394;2023-04-10T06:30:13;7.60;;;5.63;;
45970;SDS011;31681;48.982;8.394;2023-04-10T06:32:39;7.27;;;5.00;;
45970;SDS011;31681;48.982;8.394;2023-04-10T06:35:04;6.80;;;4.67;;
45970;SDS011;31681;48.982;8.394;2023-04-10T06:37:30;6.28;;;4.30;;
45970;SDS011;31681;48.982;8.394;2023-04-10T06:40:02;6.82;;;4.70;;
45970;SDS011;31681;48.982;8.394;2023-04-10T06:42:28;7.18;;;4.72;;
45970;SDS011;31681;48.982;8.394;2023-04-10T06:44:58;6.07;;;4.38;;
45970;SDS011;31681;48.982;8.394;2023-04-10T06:47:24;5.93;;;4.63;;
45970;SDS011;31681;48.982;8.394;2023-04-10T06:49:49;6.18;;;4.10;;
45970;SDS011;31681;48.982;8.394;2023-04-10T06:52:15;6.07;;;4.22;;
45970;SDS011;31681;48.982;8.394;2023-04-10T06:54:41;7.00;;;4.50;;
45970;SDS011;31681;48.982;8.394;2023-04-10T06:57:06;5.90;;;4.53;;
45970;SDS011;31681;48.982;8.394;2023-04-10T06:59:31;5.75;;;4.30;;
45970;SDS011;31681;48.982;8.394;2023-04-10T07:01:58;7.28;;;4.85;;
45970;SDS011;31681;48.982;8.394;2023-04-10T07:04:24;6.72;;;4.60;;
45970;SDS011;31681;48.982;8.394;2023-04-10T07:06:49;5.78;;;4.78;;
45970;SDS011;31681;48.982;8.394;2023-04-10T07:09:15;7.78;;;4.55;;
45970;SDS011;31681;48.982;8.394;2023-04-10T07:11:40;6.88;;;4.07;;
45970;SDS011;31681;48.982;8.394;2023-04-10T07:14:05;6.38;;;4.68;;
45970;SDS011;31681;48.982;8.394;2023-04-10T07:16:30;5.05;;;4.05;;
45970;SDS011;31681;48.982;8.394;2023-04-10T07:18:56;6.85;;;4.20;;
45970;SDS011;31681;48.982;8.394;2023-04-10T07:21:22;6.57;;;4.53;;
45970;SDS011;31681;48.982;8.394;2023-04-10T07:23:47;5.90;;;4.65;;
45970;SDS011;31681;48.982;8.394;2023-04-10T07:26:13;5.57;;;4.18;;
45970;SDS011;31681;48.982;8.394;2023-04-10T07:28:38;5.15;;;3.90;;
45970;SDS011;31681;48.982;8.394;2023-04-10T07:31:04;5.50;;;3.80;;
45970;SDS011;31681;48.982;8.394;2023-04-10T07:33:29;6.38;;;4.40;;
45970;SDS011;31681;48.982;8.394;2023-04-10T07:35:55;4.47;;;3.60;;
45970;SDS011;31681;48.982;8.394;2023-04-10T07:38:20;5.20;;;3.80;;
45970;SDS011;31681;48.982;8.394;2023-04-10T07:40:48;4.43;;;3.45;;
45970;SDS011;31681;48.982;8.394;2023-04-10T07:43:13;4.93;;;3.58;;
45970;SDS011;31681;48.982;8.394;2023-04-10T07:45:39;3.90;;;3.40;;
45970;SDS011;31681;48.982;8.394;2023-04-10T07:48:05;4.47;;;3.58;;
45970;SDS011;31681;48.982;8.394;2023-04-10T07:50:30;4.03;;;3.60;;
45970;SDS011;31681;48.982;8.394;2023-04-10T07:52:56;4.40;;;3.35;;
45970;SDS011;31681;48.982;8.394;2023-04-10T07:55:21;4.05;;;3.40;;
45970;SDS011;31681;48.982;8.394;2023-04-10T07:57:47;3.95;;;3.17;;
45970;SDS011;31681;48.982;8.394;2023-04-10T08:00:12;5.88;;;3.70;;
45970;SDS011;31681;48.982;8.394;2023-04-10T08:02:38;3.33;;;2.90;;
45970;SDS011;31681;48.982;8.394;2023-04-10T08:05:05;4.20;;;3.25;;
45970;SDS011;31681;48.982;8.394;2023-04-10T08:07:31;4.63;;;3.47;;
45970;SDS011;31681;48.982;8.394;2023-04-10T08:09:56;4.20;;;3.38;;
45970;SDS011;31681;48.982;8.394;2023-04-10T08:12:21;3.92;;;3.20;;
45970;SDS011;31681;48.982;8.394;2023-04-10T08:14:47;4.43;;;3.45;;
45970;SDS011;31681;48.982;8.394;2023-04-10T08:17:13;4.53;;;3.35;;
45970;SDS011;31681;48.982;8.394;2023-04-10T08:19:41;4.25;;;3.60;;
45970;SDS011;31681;48.982;8.394;2023-04-10T08:22:07;3.72;;;3.08;;
45970;SDS011;31681;48.982;8.394;2023-04-10T08:24:32;3.28;;;2.90;;
45970;SDS011;31681;48.982;8.394;2023-04-10T08:26:58;3.60;;;3.10;;
45970;SDS011;31681;48.982;8.394;2023-04-10T08:29:23;3.63;;;2.85;;
45970;SDS011;31681;48.982;8.394;2023-04-10T08:31:48;3.70;;;2.70;;
45970;SDS011;31681;48.982;8.394;2023-04-10T08:34:14;4.40;;;2.80;;
45970;SDS011;31681;48.982;8.394;2023-04-10T08:36:39;3.20;;;2.90;;
45970;SDS011;31681;48.982;8.394;2023-04-10T08:39:04;3.70;;;2.90;;
45970;SDS011;31681;48.982;8.394;2023-04-10T08:41:30;3.85;;;2.90;;
45970;SDS011;31681;48.982;8.394;2023-04-10T08:43:55;3.10;;;2.67;;
45970;SDS011;31681;48.982;8.394;2023-04-10T08:46:22;3.28;;;2.92;;
45970;SDS011;31681;48.982;8.394;2023-04-10T08:48:52;4.97;;;2.60;;
45970;SDS011;31681;48.982;8.394;2023-04-10T08:51:19;2.80;;;2.55;;
45970;SDS011;31681;48.982;8.394;2023-04-10T08:53:45;3.33;;;2.65;;
45970;SDS011;31681;48.982;8.394;2023-04-10T08:56:12;3.92;;;3.25;;
45970;SDS011;31681;48.982;8.394;2023-04-10T08:58:41;3.00;;;2.50;;
45970;SDS011;31681;48.982;8.394;2023-04-10T09:01:07;3.33;;;2.63;;
45970;SDS011;31681;48.982;8.394;2023-04-10T09:03:33;3.45;;;3.00;;
45970;SDS011;31681;48.982;8.394;2023-04-10T09:06:00;3.05;;;2.53;;
45970;SDS011;31681;48.982;8.394;2023-04-10T09:08:26;2.90;;;2.50;;
45970;SDS011;31681;48.982;8.394;2023-04-10T09:10:53;3.03;;;2.33;;
45970;SDS011;31681;48.982;8.394;2023-04-10T09:13:33;4.07;;;2.97;;
45970;SDS011;31681;48.982;8.394;2023-04-10T09:15:59;2.80;;;2.50;;
45970;SDS011;31681;48.982;8.394;2023-04-10T09:18:40;2.95;;;2.58;;
45970;SDS011;31681;48.982;8.394;2023-04-10T09:21:10;2.97;;;2.50;;
45970;SDS011;31681;48.982;8.394;2023-04-10T09:23:35;3.17;;;2.35;;
45970;SDS011;31681;48.982;8.394;2023-04-10T09:26:04;2.50;;;2.30;;
45970;SDS011;31681;48.982;8.394;2023-04-10T09:28:29;3.67;;;2.33;;
45970;SDS011;31681;48.982;8.394;2023-04-10T09:30:55;3.05;;;2.17;;
45970;SDS011;31681;48.982;8.394;2023-04-10T09:33:24;3.70;;;2.65;;
45970;SDS011;31681;48.982;8.394;2023-04-10T09:35:56;3.50;;;2.28;;
45970;SDS011;31681;48.982;8.394;2023-04-10T09:38:21;2.90;;;2.40;;
45970;SDS011;31681;48.982;8.394;2023-04-10T09:40:47;2.00;;;1.80;;
45970;SDS011;31681;48.982;8.394;2023-04-10T09:43:22;2.60;;;2.40;;
45970;SDS011;31681;48.982;8.394;2023-04-10T09:45:52;2.15;;;1.85;;
45970;SDS011;31681;48.982;8.394;2023-04-10T09:48:18;3.00;;;2.30;;
45970;SDS011;31681;48.982;8.394;2023-04-10T09:50:43;2.58;;;2.38;;
45970;SDS011;31681;48.982;8.394;2023-04-10T09:53:10;2.60;;;2.40;;
45970;SDS011;31681;48.982;8.394;2023-04-10T09:55:36;2.70;;;2.17;;
45970;SDS011;31681;48.982;8.394;2023-04-10T09:58:02;3.00;;;2.20;;
45970;SDS011;31681;48.982;8.394;2023-04-10T10:00:27;2.88;;;2.10;;
45970;SDS011;31681;48.982;8.394;2023-04-10T10:02:53;2.30;;;1.90;;
45970;SDS011;31681;48.982;8.394;2023-04-10T10:05:20;3.28;;;2.25;;
45970;SDS011;31681;48.982;8.394;2023-04-10T10:07:47;2.58;;;2.00;;
45970;SDS011;31681;48.982;8.394;2023-04-10T10:10:12;2.53;;;2.22;;
45970;SDS011;31681;48.982;8.394;2023-04-10T10:12:53;2.50;;;2.20;;
45970;SDS011;31681;48.982;8.394;2023-04-10T10:15:22;3.17;;;2.42;;
45970;SDS011;31681;48.982;8.394;2023-04-10T10:18:02;3.25;;;2.42;;
45970;SDS011;31681;48.982;8.394;2023-04-10T10:20:28;2.80;;;2.30;;
45970;SDS011;31681;48.982;8.394;2023-04-10T10:22:54;3.10;;;2.22;;
45970;SDS011;31681;48.982;8.394;2023-04-10T10:25:20;2.45;;;2.20;;
45970;SDS011;31681;48.982;8.394;2023-04-10T10:27:45;2.33;;;2.10;;
45970;SDS011;31681;48.982;8.394;2023-04-10T10:30:13;2.90;;;2.50;;
45970;SDS011;31681;48.982;8.394;2023-04-10T10:32:40;3.03;;;2.72;;
45970;SDS011;31681;48.982;8.394;2023-04-10T10:35:06;2.65;;;2.17;;
45970;SDS011;31681;48.982;8.394;2023-04-10T10:37:33;2.60;;;2.40;;
45970;SDS011;31681;48.982;8.394;2023-04-10T10:42:35;2.33;;;2.13;;
45970;SDS011;31681;48.982;8.394;2023-04-10T10:47:33;4.20;;;2.45;;
45970;SDS011;31681;48.982;8.394;2023-04-10T10:50:02;2.97;;;2.67;;
45970;SDS011;31681;48.982;8.394;2023-04-10T10:52:41;4.53;;;2.80;;
45970;SDS011;31681;48.982;8.394;2023-04-10T10:58:01;3.97;;;2.60;;
45970;SDS011;31681;48.982;8.394;2023-04-10T11:08:54;6.20;;;2.58;;
45970;SDS011;31681;48.982;8.394;2023-04-10T11:11:22;2.42;;;2.20;;
45970;SDS011;31681;48.982;8.394;2023-04-10T11:16:16;4.00;;;2.38;;
45970;SDS011;31681;48.982;8.394;2023-04-10T11:23:37;2.80;;;2.30;;
45970;SDS011;31681;48.982;8.394;2023-04-10T11:26:03;2.78;;;2.13;;
45970;SDS011;31681;48.982;8.394;2023-04-10T11:33:42;2.10;;;1.90;;
45970;SDS011;31681;48.982;8.394;2023-04-10T11:36:08;2.85;;;2.35;;
45970;SDS011;31681;48.982;8.394;2023-04-10T11:38:34;2.50;;;2.20;;
45970;SDS011;31681;48.982;8.394;2023-04-10T11:41:00;2.45;;;2.13;;
45970;SDS011;31681;48.982;8.394;2023-04-10T11:43:26;2.25;;;2.05;;
45970;SDS011;31681;48.982;8.394;2023-04-10T11:46:07;2.20;;;2.05;;
45970;SDS011;31681;48.982;8.394;2023-04-10T11:48:32;2.40;;;2.20;;
45970;SDS011;31681;48.982;8.394;2023-04-10T11:50:58;3.60;;;2.17;;
45970;SDS011;31681;48.982;8.394;2023-04-10T11:53:25;3.13;;;2.30;;
45970;SDS011;31681;48.982;8.394;2023-04-10T11:55:51;2.25;;;2.00;;
45970;SDS011;31681;48.982;8.394;2023-04-10T11:58:27;2.63;;;2.15;;
45970;SDS011;31681;48.982;8.394;2023-04-10T12:06:16;3.15;;;2.33;;
45970;SDS011;31681;48.982;8.394;2023-04-10T12:08:44;2.65;;;2.28;;
45970;SDS011;31681;48.982;8.394;2023-04-10T12:11:10;2.55;;;2.35;;
45970;SDS011;31681;48.982;8.394;2023-04-10T12:13:35;2.38;;;2.17;;
45970;SDS011;31681;48.982;8.394;2023-04-10T12:16:03;1.95;;;1.75;;
45970;SDS011;31681;48.982;8.394;2023-04-10T12:18:28;2.85;;;2.10;;
45970;SDS011;31681;48.982;8.394;2023-04-10T12:20:55;2.78;;;2.53;;
45970;SDS011;31681;48.982;8.394;2023-04-10T12:23:25;2.10;;;1.90;;
45970;SDS011;31681;48.982;8.394;2023-04-10T12:25:51;2.90;;;2.38;;
45970;SDS011;31681;48.982;8.394;2023-04-10T12:28:18;3.45;;;2.78;;
45970;SDS011;31681;48.982;8.394;2023-04-10T12:30:47;2.67;;;2.42;;
45970;SDS011;31681;48.982;8.394;2023-04-10T12:33:12;2.78;;;2.20;;
45970;SDS011;31681;48.982;8.394;2023-04-10T12:35:38;2.53;;;2.00;;
45970;SDS011;31681;48.982;8.394;2023-04-10T12:38:04;2.55;;;2.35;;
45970;SDS011;31681;48.982;8.394;2023-04-10T12:40:29;2.10;;;1.90;;
45970;SDS011;31681;48.982;8.394;2023-04-10T12:42:55;2.42;;;2.22;;
45970;SDS011;31681;48.982;8.394;2023-04-10T12:45:20;2.72;;;2.13;;
45970;SDS011;31681;48.982;8.394;2023-04-10T12:47:49;3.05;;;1.98;;
45970;SDS011;31681;48.982;8.394;2023-04-10T12:50:18;2.25;;;2.05;;
45970;SDS011;31681;48.982;8.394;2023-04-10T12:52:46;3.03;;;2.47;;
45970;SDS011;31681;48.982;8.394;2023-04-10T12:55:25;2.80;;;2.40;;
45970;SDS011;31681;48.982;8.394;2023-04-10T12:57:50;2.67;;;2.47;;
45970;SDS011;31681;48.982;8.394;2023-04-10T13:00:16;2.53;;;2.25;;
45970;SDS011;31681;48.982;8.394;2023-04-10T13:02:42;2.47;;;2.10;;
45970;SDS011;31681;48.982;8.394;2023-04-10T13:05:08;2.60;;;2.40;;
45970;SDS011;31681;48.982;8.394;2023-04-10T13:07:33;2.72;;;2.30;;
45970;SDS011;31681;48.982;8.394;2023-04-10T13:10:00;2.95;;;2.30;;
45970;SDS011;31681;48.982;8.394;2023-04-10T13:12:25;2.83;;;2.50;;
45970;SDS011;31681;48.982;8.394;2023-04-10T13:14:53;3.10;;;2.28;;
45970;SDS011;31681;48.982;8.394;2023-04-10T13:17:21;2.85;;;2.28;;
45970;SDS011;31681;48.982;8.394;2023-04-10T13:19:47;3.70;;;2.78;;
45970;SDS011;31681;48.982;8.394;2023-04-10T13:22:12;2.10;;;1.85;;
45970;SDS011;31681;48.982;8.394;2023-04-10T13:24:37;3.22;;;2.50;;
45970;SDS011;31681;48.982;8.394;2023-04-10T13:27:03;2.58;;;2.35;;
45970;SDS011;31681;48.982;8.394;2023-04-10T13:29:28;2.65;;;2.25;;
45970;SDS011;31681;48.982;8.394;2023-04-10T13:31:54;2.38;;;2.17;;
45970;SDS011;31681;48.982;8.394;2023-04-10T13:34:19;2.95;;;2.30;;
45970;SDS011;31681;48.982;8.394;2023-04-10T13:36:45;2.25;;;1.95;;
45970;SDS011;31681;48.982;8.394;2023-04-10T13:39:10;8.13;;;2.47;;
45970;SDS011;31681;48.982;8.394;2023-04-10T13:41:36;2.50;;;2.25;;
45970;SDS011;31681;48.982;8.394;2023-04-10T13:44:01;3.53;;;2.03;;
45970;SDS011;31681;48.982;8.394;2023-04-10T13:46:26;2.63;;;2.40;;
45970;SDS011;31681;48.982;8.394;2023-04-10T13:48:51;3.42;;;2.25;;
45970;SDS011;31681;48.982;8.394;2023-04-10T13:51:17;2.20;;;2.00;;
45970;SDS011;31681;48.982;8.394;2023-04-10T13:53:42;2.40;;;2.10;;
45970;SDS011;31681;48.982;8.394;2023-04-10T13:56:07;2.38;;;2.17;;
45970;SDS011;31681;48.982;8.394;2023-04-10T13:58:33;2.30;;;1.92;;
45970;SDS011;31681;48.982;8.394;2023-04-10T14:00:59;2.10;;;1.98;;
45970;SDS011;31681;48.982;8.394;2023-04-10T14:03:25;2.30;;;1.90;;
45970;SDS011;31681;48.982;8.394;2023-04-10T14:05:50;2.30;;;1.92;;
45970;SDS011;31681;48.982;8.394;2023-04-10T14:08:17;1.92;;;1.70;;
45970;SDS011;31681;48.982;8.394;2023-04-10T14:10:42;1.92;;;1.70;;
45970;SDS011;31681;48.982;8.394;2023-04-10T14:13:07;2.33;;;2.13;;
45970;SDS011;31681;48.982;8.394;2023-04-10T14:15:33;2.00;;;1.80;;
45970;SDS011;31681;48.982;8.394;2023-04-10T14:17:58;2.38;;;2.17;;
45970;SDS011;31681;48.982;8.394;2023-04-10T14:20:24;3.47;;;2.10;;
45970;SDS011;31681;48.982;8.394;2023-04-10T14:22:49;2.15;;;1.95;;
45970;SDS011;31681;48.982;8.394;2023-04-10T14:25:15;3.67;;;2.00;;
45970;SDS011;31681;48.982;8.394;2023-04-10T14:27:41;2.17;;;1.90;;
45970;SDS011;31681;48.982;8.394;2023-04-10T14:30:07;2.20;;;2.00;;
45970;SDS011;31681;48.982;8.394;2023-04-10T14:32:32;2.72;;;1.92;;
45970;SDS011;31681;48.982;8.394;2023-04-10T14:34:57;2.40;;;2.00;;
45970;SDS011;31681;48.982;8.394;2023-04-10T14:37:23;2.53;;;1.90;;
45970;SDS011;31681;48.982;8.394;2023-04-10T14:39:48;2.10;;;1.90;;
45970;SDS011;31681;48.982;8.394;2023-04-10T14:42:14;2.22;;;2.00;;
45970;SDS011;31681;48.982;8.394;2023-04-10T14:44:39;2.25;;;2.05;;
45970;SDS011;31681;48.982;8.394;2023-04-10T14:47:04;2.47;;;2.22;;
45970;SDS011;31681;48.982;8.394;2023-04-10T14:49:30;2.72;;;2.38;;
45970;SDS011;31681;48.982;8.394;2023-04-10T14:51:56;2.47;;;2.28;;
45970;SDS011;31681;48.982;8.394;2023-04-10T14:54:21;2.38;;;2.00;;
45970;SDS011;31681;48.982;8.394;2023-04-10T14:56:48;2.05;;;1.85;;
45970;SDS011;31681;48.982;8.394;2023-04-10T14:59:14;2.72;;;2.20;;
45970;SDS011;31681;48.982;8.394;2023-04-10T15:01:39;2.50;;;2.30;;
45970;SDS011;31681;48.982;8.394;2023-04-10T15:04:04;3.00;;;2.70;;
45970;SDS011;31681;48.982;8.394;2023-04-10T15:06:31;3.25;;;2.20;;
45970;SDS011;31681;48.982;8.394;2023-04-10T15:08:56;2.70;;;2.38;;
45970;SDS011;31681;48.982;8.394;2023-04-10T15:11:22;3.13;;;2.42;;
45970;SDS011;31681;48.982;8.394;2023-04-10T15:13:47;2.78;;;2.28;;
45970;SDS011;31681;48.982;8.394;2023-04-10T15:16:13;2.92;;;2.35;;
45970;SDS011;31681;48.982;8.394;2023-04-10T15:18:38;3.15;;;2.50;;
45970;SDS011;31681;48.982;8.394;2023-04-10T15:21:03;3.35;;;2.50;;
45970;SDS011;31681;48.982;8.394;2023-04-10T15:23:29;2.83;;;2.58;;
45970;SDS011;31681;48.982;8.394;2023-04-10T15:25:55;2.60;;;2.40;;
45970;SDS011;31681;48.982;8.394;2023-04-10T15:28:20;4.10;;;2.88;;
45970;SDS011;31681;48.982;8.394;2023-04-10T15:30:45;2.90;;;2.20;;
45970;SDS011;31681;48.982;8.394;2023-04-10T15:33:13;2.60;;;2.35;;
45970;SDS011;31681;48.982;8.394;2023-04-10T15:35:38;3.13;;;2.47;;
45970;SDS011;31681;48.982;8.394;2023-04-10T15:38:04;2.85;;;2.33;;
45970;SDS011;31681;48.982;8.394;2023-04-10T15:40:30;3.13;;;2.42;;
45970;SDS011;31681;48.982;8.394;2023-04-10T15:42:56;2.50;;;2.30;;
45970;SDS011;31681;48.982;8.394;2023-04-10T15:45:21;4.22;;;2.38;;